KDLN/DLN METAR and TAF weather

Enter ICAO airport designator
Station Type Date Time Source
KDLN METAR 2022/01/26 14:53 UTC NOAA

KDLN 261453Z AUTO 20012KT 10SM CLR M09/M13 A3009 RMK AO2 SLP257 T10891133 56008


Station Type Date Time Source
KDLN Decoded METAR 2022/01/26 14:53 UTC NOAA

DILLON AIRPORT, MT, United States (KDLN) 45-15N 112-33W 1591M
Jan 26, 2022 - 09:53 AM EST / 2022.01.26 1453 UTC
Wind: from the SSW (200 degrees) at 14 MPH (12 KT):0
Visibility: 10 mile(s):0
Sky conditions: clear
Temperature: 16.0 F (-8.9 C)
Windchill: 1 F (-17 C):1
Dew Point: 8.1 F (-13.3 C)
Relative Humidity: 70%
Pressure (altimeter): 30.09 in. Hg (1018 hPa)
Pressure tendency: 0.02 inches (0.8 hPa) lower than three hours ago
ob: KDLN 261453Z AUTO 20012KT 10SM CLR M09/M13 A3009 RMK AO2 SLP257 T10891133 56008
cycle: 15

Station Type Date Time Source
KDLN TAF UTC NOAA

Error!

Example: see airport list